createdAt,value
2023-04-30T00:02:14.428Z,74.10
2023-04-30T00:04:42.596Z,74.10
2023-04-30T00:07:10.765Z,74.20
2023-04-30T00:09:38.860Z,74.10
2023-04-30T00:12:07.656Z,74.20
2023-04-30T00:14:37.476Z,74.20
2023-04-30T00:17:05.604Z,74.40
2023-04-30T00:19:33.678Z,74.10
2023-04-30T00:22:02.600Z,74.10
2023-04-30T00:24:30.929Z,74.00
2023-04-30T00:26:59.028Z,74.20
2023-04-30T00:29:27.283Z,74.30
2023-04-30T00:31:57.643Z,75.30
2023-04-30T00:34:25.843Z,74.90
2023-04-30T00:36:53.934Z,74.90
2023-04-30T00:39:23.717Z,74.90
2023-04-30T00:41:51.841Z,75.00
2023-04-30T00:44:19.940Z,75.00
2023-04-30T00:46:48.034Z,75.10
2023-04-30T00:49:17.680Z,75.10
2023-04-30T00:51:46.531Z,75.30
2023-04-30T00:54:14.711Z,75.30
2023-04-30T00:56:43.067Z,75.30
2023-04-30T00:59:12.635Z,75.20
2023-04-30T01:01:42.144Z,75.20
2023-04-30T01:04:10.742Z,75.10
2023-04-30T01:06:40.618Z,75.30
2023-04-30T01:09:08.992Z,75.50
2023-04-30T01:12:01.764Z,75.70
2023-04-30T01:14:34.882Z,75.90
2023-04-30T01:17:09.882Z,75.80
2023-04-30T01:19:43.266Z,75.90
2023-04-30T01:22:24.543Z,75.80
2023-04-30T01:25:16.623Z,76.00
2023-04-30T01:28:06.002Z,76.20
2023-04-30T01:30:35.295Z,76.30
2023-04-30T01:33:03.644Z,75.60
2023-04-30T01:35:58.741Z,75.60
2023-04-30T01:38:36.900Z,76.10
2023-04-30T01:41:11.845Z,75.80
2023-04-30T01:43:51.210Z,76.00
2023-04-30T01:46:25.843Z,76.30
2023-04-30T01:49:05.238Z,76.30
2023-04-30T01:51:41.010Z,76.40
2023-04-30T01:54:18.177Z,76.50
2023-04-30T01:56:52.299Z,76.60
2023-04-30T01:59:22.659Z,76.70
2023-04-30T02:01:50.998Z,76.70
2023-04-30T02:04:19.164Z,76.80
2023-04-30T02:06:47.265Z,76.90
2023-04-30T02:09:15.411Z,77.00
2023-04-30T02:11:43.685Z,77.20
2023-04-30T02:14:11.759Z,77.20
2023-04-30T02:16:41.620Z,77.40
2023-04-30T02:19:09.868Z,77.60
2023-04-30T02:21:39.068Z,77.50
2023-04-30T02:24:07.735Z,77.60
2023-04-30T02:26:35.930Z,77.70
2023-04-30T02:29:04.022Z,77.60
2023-04-30T02:31:32.882Z,77.70
2023-04-30T02:34:02.379Z,77.70
2023-04-30T02:36:36.179Z,77.80
2023-04-30T02:39:04.370Z,77.70
2023-04-30T02:41:32.516Z,77.60
2023-04-30T02:44:00.691Z,77.60
2023-04-30T02:46:28.782Z,77.60
2023-04-30T02:48:57.128Z,77.70
2023-04-30T02:51:26.914Z,77.80
2023-04-30T02:53:55.006Z,77.90
2023-04-30T02:56:23.098Z,77.90
2023-04-30T02:58:51.208Z,78.10
2023-04-30T03:01:19.284Z,78.20
2023-04-30T03:03:47.561Z,78.10
2023-04-30T03:06:15.832Z,78.00
2023-04-30T03:08:45.385Z,78.70
2023-04-30T03:11:13.505Z,77.90
2023-04-30T03:13:41.916Z,77.80
2023-04-30T03:16:11.165Z,77.70
2023-04-30T03:18:39.308Z,77.70
2023-04-30T03:21:07.467Z,77.90
2023-04-30T03:23:35.633Z,78.10
2023-04-30T03:26:05.147Z,78.30
2023-04-30T03:28:33.291Z,78.50
2023-04-30T03:31:05.152Z,78.40
2023-04-30T03:33:33.442Z,78.40
2023-04-30T03:36:01.776Z,78.50
2023-04-30T03:38:29.860Z,78.60
2023-04-30T03:40:57.935Z,78.90
2023-04-30T03:43:27.389Z,79.20
2023-04-30T03:45:55.575Z,79.50
2023-04-30T03:48:23.699Z,79.50
2023-04-30T03:50:51.794Z,79.40
2023-04-30T03:53:19.895Z,79.20
2023-04-30T03:55:48.086Z,79.00
2023-04-30T03:58:16.391Z,78.90
2023-04-30T04:00:47.690Z,79.70
2023-04-30T04:03:16.221Z,79.30
2023-04-30T04:05:44.466Z,79.40
2023-04-30T04:08:12.598Z,79.20
2023-04-30T04:10:41.202Z,79.10
2023-04-30T04:13:09.382Z,79.10
2023-04-30T04:15:37.534Z,78.90
2023-04-30T04:18:08.674Z,78.80
2023-04-30T04:20:36.815Z,78.90
2023-04-30T04:23:04.959Z,78.80
2023-04-30T04:25:33.436Z,78.70
2023-04-30T04:28:01.646Z,78.60
2023-04-30T04:30:29.815Z,78.70
2023-04-30T04:32:58.614Z,78.70
2023-04-30T04:35:28.181Z,78.70
2023-04-30T04:37:56.457Z,78.80
2023-04-30T04:40:25.015Z,78.90
2023-04-30T04:42:53.121Z,79.10
2023-04-30T04:45:21.666Z,79.20
2023-04-30T04:47:50.903Z,79.40
2023-04-30T04:50:19.216Z,79.50
2023-04-30T04:52:48.710Z,79.70
2023-04-30T04:55:16.899Z,80.00
2023-04-30T04:57:45.013Z,80.00
2023-04-30T05:00:14.404Z,80.00
2023-04-30T05:02:42.789Z,80.00
2023-04-30T05:05:11.563Z,80.00
2023-04-30T05:07:39.722Z,80.10
2023-04-30T05:10:10.399Z,80.00
2023-04-30T05:12:39.632Z,80.00
2023-04-30T05:15:08.638Z,79.90
2023-04-30T05:17:36.766Z,79.80
2023-04-30T05:20:07.272Z,79.60
2023-04-30T05:22:35.494Z,79.60
2023-04-30T05:25:04.064Z,79.60
2023-04-30T05:27:33.520Z,79.60
2023-04-30T05:30:01.797Z,79.60
2023-04-30T05:32:30.107Z,79.60
2023-04-30T05:34:58.210Z,79.60
2023-04-30T05:37:26.342Z,79.60
2023-04-30T05:39:54.834Z,79.60
2023-04-30T05:42:23.069Z,79.60
2023-04-30T05:44:52.722Z,79.30
2023-04-30T05:47:20.813Z,79.20
2023-04-30T05:49:48.910Z,79.00
2023-04-30T05:52:17.633Z,78.90
2023-04-30T05:54:46.834Z,79.00
2023-04-30T05:57:16.751Z,78.90
2023-04-30T05:59:44.866Z,78.90
2023-04-30T06:02:14.346Z,78.80
2023-04-30T06:04:42.716Z,78.80
2023-04-30T06:07:10.890Z,78.70
2023-04-30T06:09:38.967Z,78.50
2023-04-30T06:12:07.240Z,78.30
2023-04-30T06:14:36.281Z,78.10
2023-04-30T06:17:04.517Z,78.00
2023-04-30T06:19:35.568Z,78.00
2023-04-30T06:22:03.639Z,77.90
2023-04-30T06:24:31.756Z,77.70
2023-04-30T06:26:59.860Z,77.70
2023-04-30T06:29:27.920Z,77.60
2023-04-30T06:31:56.298Z,77.50
2023-04-30T06:34:24.404Z,77.10
2023-04-30T06:36:53.896Z,76.70
2023-04-30T06:39:22.028Z,76.80
2023-04-30T06:41:50.095Z,76.60
2023-04-30T06:44:19.058Z,76.60
2023-04-30T06:46:47.124Z,76.40
2023-04-30T06:49:15.222Z,76.40
2023-04-30T06:51:43.742Z,76.40
2023-04-30T06:54:14.375Z,76.10
2023-04-30T06:56:43.862Z,75.90
2023-04-30T06:59:12.305Z,75.90
2023-04-30T07:01:40.741Z,75.90
2023-04-30T07:04:08.857Z,75.70
2023-04-30T07:06:37.229Z,75.20
2023-04-30T07:09:05.487Z,74.80
2023-04-30T07:11:34.950Z,74.50
2023-04-30T07:14:03.174Z,74.30
2023-04-30T07:16:34.134Z,74.40
2023-04-30T07:19:02.303Z,74.30
2023-04-30T07:21:32.752Z,74.30
2023-04-30T07:24:00.879Z,74.60
2023-04-30T07:26:29.002Z,74.50
2023-04-30T07:28:58.592Z,74.40
2023-04-30T07:31:27.431Z,74.30
2023-04-30T07:33:55.979Z,74.30
2023-04-30T07:36:24.595Z,74.10
2023-04-30T07:38:52.692Z,73.80
2023-04-30T07:41:21.853Z,73.60
2023-04-30T07:43:49.926Z,73.00
2023-04-30T07:46:19.407Z,72.70
2023-04-30T07:48:47.492Z,72.60
2023-04-30T07:51:15.631Z,72.80
2023-04-30T07:53:43.736Z,72.80
2023-04-30T07:56:11.793Z,72.90
2023-04-30T07:58:39.918Z,72.80
2023-04-30T08:01:08.007Z,72.80
2023-04-30T08:03:37.696Z,72.70
2023-04-30T08:06:07.115Z,72.50
2023-04-30T08:08:35.251Z,71.90
2023-04-30T08:11:03.700Z,71.70
2023-04-30T08:13:31.953Z,71.30
2023-04-30T08:16:00.404Z,71.20
2023-04-30T08:18:28.450Z,71.10
2023-04-30T08:20:57.996Z,70.40
2023-04-30T08:23:26.086Z,70.00
2023-04-30T08:25:54.220Z,70.00
2023-04-30T08:28:22.283Z,69.70
2023-04-30T08:30:50.403Z,68.90
2023-04-30T08:33:18.627Z,68.90
2023-04-30T08:35:46.815Z,69.00
2023-04-30T08:38:16.274Z,68.80
2023-04-30T08:40:52.046Z,68.50
2023-04-30T08:43:20.992Z,68.00
2023-04-30T08:45:50.306Z,67.70
2023-04-30T08:48:20.255Z,67.30
2023-04-30T08:50:48.840Z,66.50
2023-04-30T08:53:21.590Z,66.00
2023-04-30T08:55:49.825Z,65.50
2023-04-30T08:58:17.913Z,65.50
2023-04-30T09:00:46.343Z,65.00
2023-04-30T09:03:14.595Z,64.00
2023-04-30T09:05:42.887Z,63.20
2023-04-30T09:08:11.115Z,62.10
2023-04-30T09:10:40.668Z,61.80
2023-04-30T09:13:10.216Z,61.50
2023-04-30T09:15:41.552Z,59.90
2023-04-30T09:18:11.456Z,59.70
2023-04-30T09:20:40.038Z,60.00
2023-04-30T09:23:09.276Z,60.10
2023-04-30T09:25:42.489Z,59.80
2023-04-30T09:28:11.365Z,58.90
2023-04-30T09:30:40.138Z,61.60
2023-04-30T09:33:11.489Z,59.10
2023-04-30T09:35:41.627Z,58.50
2023-04-30T09:38:25.984Z,57.60
2023-04-30T09:40:55.485Z,58.10
2023-04-30T09:43:23.647Z,56.80
2023-04-30T09:45:52.224Z,56.60
2023-04-30T09:48:22.564Z,56.60
2023-04-30T09:50:51.464Z,56.20
2023-04-30T09:53:20.325Z,56.20
2023-04-30T09:55:50.124Z,53.70
2023-04-30T09:58:20.652Z,54.80
2023-04-30T10:00:51.645Z,54.20
2023-04-30T10:03:22.827Z,54.80
2023-04-30T10:05:52.437Z,54.70
2023-04-30T10:08:26.317Z,53.50
2023-04-30T10:11:00.364Z,52.20
2023-04-30T10:13:33.152Z,53.00
2023-04-30T10:16:05.683Z,53.30
2023-04-30T10:18:38.339Z,52.80
2023-04-30T10:21:12.105Z,52.70
2023-04-30T10:23:42.115Z,51.60
2023-04-30T10:26:12.315Z,51.90
2023-04-30T10:28:43.110Z,50.90
2023-04-30T10:31:13.188Z,50.40
2023-04-30T10:33:50.899Z,50.40
2023-04-30T10:36:27.278Z,49.20
2023-04-30T10:38:58.526Z,49.50
2023-04-30T10:41:29.427Z,49.80
2023-04-30T10:44:02.394Z,49.50
2023-04-30T10:46:30.560Z,49.90
2023-04-30T10:49:00.166Z,49.40
2023-04-30T10:51:46.451Z,47.20
2023-04-30T10:54:19.908Z,47.50
2023-04-30T10:56:49.858Z,48.40
2023-04-30T10:59:21.649Z,48.90
2023-04-30T11:02:04.849Z,47.40
2023-04-30T11:04:33.992Z,47.10
2023-04-30T11:07:12.196Z,48.50
2023-04-30T11:09:43.770Z,48.10
2023-04-30T11:12:19.909Z,48.50
2023-04-30T11:14:53.697Z,47.70
2023-04-30T11:17:34.623Z,46.10
2023-04-30T11:20:05.758Z,47.60
2023-04-30T11:22:37.815Z,47.10
2023-04-30T11:25:10.036Z,47.50
2023-04-30T11:27:41.636Z,47.90
2023-04-30T11:30:20.332Z,46.60
2023-04-30T11:32:52.937Z,47.20
2023-04-30T11:35:23.255Z,47.30
2023-04-30T11:37:56.035Z,47.40
2023-04-30T11:40:24.628Z,47.50
2023-04-30T11:42:52.720Z,47.50
2023-04-30T11:45:23.342Z,48.20
2023-04-30T11:47:53.670Z,46.80
2023-04-30T11:50:27.648Z,47.00
2023-04-30T11:52:57.286Z,46.70
2023-04-30T11:55:27.812Z,47.00
2023-04-30T11:57:58.646Z,45.90
2023-04-30T12:00:29.854Z,45.60
2023-04-30T12:02:59.083Z,45.70
2023-04-30T12:05:28.579Z,46.60
2023-04-30T12:07:57.528Z,46.10
2023-04-30T12:10:26.109Z,46.50
2023-04-30T12:12:54.786Z,46.00
2023-04-30T12:15:27.143Z,46.20
2023-04-30T12:17:58.249Z,44.70
2023-04-30T12:20:28.408Z,45.20
2023-04-30T12:22:57.190Z,44.80
2023-04-30T12:25:25.808Z,44.90
2023-04-30T12:27:54.690Z,45.00
2023-04-30T12:30:24.854Z,45.60
2023-04-30T12:32:55.678Z,45.80
2023-04-30T12:35:25.952Z,44.70
2023-04-30T12:38:02.627Z,43.70
2023-04-30T12:40:30.735Z,43.30
2023-04-30T12:43:02.911Z,42.70
2023-04-30T12:45:52.371Z,42.20
2023-04-30T12:48:21.894Z,42.20
2023-04-30T12:50:54.186Z,43.00
2023-04-30T12:53:23.660Z,43.90
2023-04-30T12:56:12.191Z,43.50
2023-04-30T12:58:40.816Z,42.10
2023-04-30T13:01:13.689Z,41.80
2023-04-30T13:03:42.523Z,42.20
2023-04-30T13:06:12.429Z,43.70
2023-04-30T13:08:56.226Z,43.30
2023-04-30T13:11:27.006Z,42.90
2023-04-30T13:13:56.253Z,42.50
2023-04-30T13:16:25.903Z,42.80
2023-04-30T13:18:54.659Z,42.80
2023-04-30T13:21:24.949Z,42.80
2023-04-30T13:23:54.488Z,42.60
2023-04-30T13:26:23.963Z,43.00
2023-04-30T13:28:52.265Z,42.30
2023-04-30T13:31:20.561Z,42.70
2023-04-30T13:33:48.860Z,41.70
2023-04-30T13:36:17.264Z,41.80
2023-04-30T13:38:46.737Z,42.60
2023-04-30T13:41:14.910Z,42.30
2023-04-30T13:43:44.628Z,41.70
2023-04-30T13:46:12.974Z,41.30
2023-04-30T13:48:41.138Z,41.10
2023-04-30T13:51:09.581Z,41.70
2023-04-30T13:53:37.821Z,41.10
2023-04-30T13:56:07.904Z,41.00
2023-04-30T13:58:35.996Z,40.40
2023-04-30T14:01:04.180Z,39.70
2023-04-30T14:03:33.049Z,40.50
2023-04-30T14:06:01.357Z,40.60
2023-04-30T14:08:30.748Z,41.40
2023-04-30T14:10:58.852Z,41.60
2023-04-30T14:13:28.332Z,40.90
2023-04-30T14:15:57.047Z,41.00
2023-04-30T14:18:25.476Z,40.50
2023-04-30T14:20:53.600Z,40.60
2023-04-30T14:23:21.693Z,40.40
2023-04-30T14:25:50.014Z,40.30
2023-04-30T14:28:18.107Z,39.60
2023-04-30T14:30:47.606Z,39.90
2023-04-30T14:33:15.780Z,40.00
2023-04-30T14:35:44.040Z,39.70
2023-04-30T14:38:12.097Z,39.70
2023-04-30T14:40:40.205Z,39.40
2023-04-30T14:43:08.281Z,39.50
2023-04-30T14:45:36.494Z,39.60
2023-04-30T14:48:06.471Z,40.10
2023-04-30T14:50:34.620Z,39.30
2023-04-30T14:53:04.022Z,38.60
2023-04-30T14:55:32.202Z,38.80
2023-04-30T14:58:00.905Z,39.00
2023-04-30T15:00:29.119Z,38.80
2023-04-30T15:02:57.307Z,38.50
2023-04-30T15:05:27.022Z,38.20
2023-04-30T15:07:55.115Z,37.70
2023-04-30T15:10:23.229Z,37.30
2023-04-30T15:12:51.454Z,38.20
2023-04-30T15:15:22.513Z,37.30
2023-04-30T15:17:50.626Z,37.30
2023-04-30T15:20:18.802Z,37.00
2023-04-30T15:22:48.334Z,37.30
2023-04-30T15:25:16.513Z,37.30
2023-04-30T15:27:44.696Z,37.40
2023-04-30T15:30:13.752Z,37.80
2023-04-30T15:32:41.866Z,37.40
2023-04-30T15:35:10.657Z,37.00
2023-04-30T15:37:38.760Z,36.90
2023-04-30T15:40:10.958Z,37.10
2023-04-30T15:42:39.835Z,37.40
2023-04-30T15:45:09.130Z,38.20
2023-04-30T15:47:37.357Z,38.50
2023-04-30T15:50:06.079Z,37.90
2023-04-30T15:52:34.260Z,38.00
2023-04-30T15:55:02.359Z,38.00
2023-04-30T15:57:31.825Z,38.00
2023-04-30T15:59:59.964Z,37.90
2023-04-30T16:02:28.138Z,38.40
2023-04-30T16:04:56.471Z,38.20
2023-04-30T16:07:24.714Z,38.40
2023-04-30T16:09:53.112Z,38.00
2023-04-30T16:12:21.401Z,38.10
2023-04-30T16:14:51.278Z,38.60
2023-04-30T16:17:19.384Z,38.50
2023-04-30T16:19:47.650Z,38.60
2023-04-30T16:22:17.168Z,38.60
2023-04-30T16:24:45.260Z,38.20
2023-04-30T16:27:13.377Z,37.90
2023-04-30T16:29:41.967Z,38.20
2023-04-30T16:32:11.798Z,38.90
2023-04-30T16:34:40.003Z,39.50
2023-04-30T16:37:08.106Z,39.80
2023-04-30T16:39:36.185Z,39.90
2023-04-30T16:42:04.393Z,39.60
2023-04-30T16:44:32.460Z,40.20
2023-04-30T16:47:00.598Z,40.30
2023-04-30T16:49:30.099Z,39.70
2023-04-30T16:52:02.361Z,40.20
2023-04-30T16:54:30.627Z,40.50
2023-04-30T16:56:58.711Z,40.10
2023-04-30T16:59:27.088Z,40.60
2023-04-30T17:01:56.757Z,40.80
2023-04-30T17:04:24.922Z,41.20
2023-04-30T17:06:54.440Z,40.90
2023-04-30T17:09:22.541Z,41.10
2023-04-30T17:11:50.629Z,41.10
2023-04-30T17:14:18.699Z,41.50
2023-04-30T17:16:46.977Z,42.00
2023-04-30T17:19:15.135Z,42.00
2023-04-30T17:21:43.202Z,42.20
2023-04-30T17:24:12.643Z,42.30
2023-04-30T17:26:42.846Z,42.30
2023-04-30T17:29:10.913Z,42.20
2023-04-30T17:31:39.093Z,42.40
2023-04-30T17:34:07.264Z,42.40
2023-04-30T17:36:35.361Z,42.90
2023-04-30T17:39:05.737Z,43.00
2023-04-30T17:41:35.230Z,43.20
2023-04-30T17:44:03.321Z,43.60
2023-04-30T17:46:31.482Z,43.70
2023-04-30T17:49:01.656Z,44.00
2023-04-30T17:51:31.624Z,44.00
2023-04-30T17:54:00.237Z,44.10
2023-04-30T17:56:29.975Z,44.00
2023-04-30T17:58:59.915Z,44.10
2023-04-30T18:01:28.161Z,44.30
2023-04-30T18:03:56.457Z,44.40
2023-04-30T18:06:24.618Z,44.60
2023-04-30T18:08:53.846Z,44.70
2023-04-30T18:11:21.916Z,44.90
2023-04-30T18:13:50.001Z,45.30
2023-04-30T18:16:19.469Z,45.60
2023-04-30T18:18:47.546Z,45.80
2023-04-30T18:21:15.745Z,45.90
2023-04-30T18:23:43.843Z,45.90
2023-04-30T18:26:12.009Z,45.90
2023-04-30T18:28:40.080Z,45.90
2023-04-30T18:31:08.256Z,46.10
2023-04-30T18:33:37.688Z,46.20
2023-04-30T18:36:07.542Z,46.40
2023-04-30T18:38:35.878Z,46.60
2023-04-30T18:41:03.977Z,46.70
2023-04-30T18:43:40.080Z,46.90
2023-04-30T18:46:08.205Z,47.10
2023-04-30T18:48:38.297Z,47.10
2023-04-30T18:51:06.654Z,47.20
2023-04-30T18:53:35.961Z,47.20
2023-04-30T18:56:04.032Z,47.40
2023-04-30T18:58:32.300Z,47.50
2023-04-30T19:01:00.545Z,47.60
2023-04-30T19:03:29.028Z,47.70
2023-04-30T19:05:58.880Z,47.80
2023-04-30T19:08:27.070Z,48.10
2023-04-30T19:10:55.952Z,48.10
2023-04-30T19:13:24.236Z,48.30
2023-04-30T19:15:53.735Z,48.40
2023-04-30T19:18:24.443Z,48.40
2023-04-30T19:21:00.167Z,48.50
2023-04-30T19:23:30.302Z,48.80
2023-04-30T19:25:58.713Z,48.70
2023-04-30T19:28:27.006Z,48.90
2023-04-30T19:30:56.014Z,49.10
2023-04-30T19:33:24.952Z,49.20
2023-04-30T19:35:53.506Z,49.30
2023-04-30T19:38:23.282Z,49.50
2023-04-30T19:40:52.556Z,49.70
2023-04-30T19:43:21.052Z,49.70
2023-04-30T19:45:52.651Z,49.90
2023-04-30T19:48:21.412Z,50.10
2023-04-30T19:50:51.409Z,50.20
2023-04-30T19:53:20.224Z,50.30
2023-04-30T19:55:49.681Z,50.40
2023-04-30T19:58:17.794Z,50.60
2023-04-30T20:00:46.652Z,50.60
2023-04-30T20:03:15.957Z,50.70
2023-04-30T20:05:45.676Z,51.30
2023-04-30T20:08:13.808Z,50.70
2023-04-30T20:10:50.160Z,50.80
2023-04-30T20:13:18.549Z,51.20
2023-04-30T20:15:46.695Z,51.00
2023-04-30T20:18:14.814Z,51.00
2023-04-30T20:20:43.206Z,51.20
2023-04-30T20:23:13.973Z,51.10
2023-04-30T20:25:45.070Z,51.40
2023-04-30T20:28:15.783Z,51.30
2023-04-30T20:30:44.185Z,51.40
2023-04-30T20:33:12.461Z,51.60
2023-04-30T20:35:41.628Z,51.60
2023-04-30T20:38:10.868Z,51.80
2023-04-30T20:40:40.532Z,51.90
2023-04-30T20:43:10.233Z,51.90
2023-04-30T20:45:40.210Z,51.90
2023-04-30T20:48:09.093Z,52.00
2023-04-30T20:50:37.722Z,52.00
2023-04-30T20:53:05.976Z,52.00
2023-04-30T20:55:34.366Z,52.10
2023-04-30T20:58:03.750Z,52.10
2023-04-30T21:00:31.916Z,52.20
2023-04-30T21:03:01.631Z,52.30
2023-04-30T21:05:30.199Z,52.40
2023-04-30T21:08:01.181Z,52.50
2023-04-30T21:10:36.041Z,52.60
2023-04-30T21:13:06.210Z,52.60
2023-04-30T21:15:36.554Z,52.60
2023-04-30T21:18:06.119Z,52.80
2023-04-30T21:20:34.292Z,52.90
2023-04-30T21:23:03.506Z,52.90
2023-04-30T21:25:31.663Z,53.00
2023-04-30T21:27:59.784Z,53.00
2023-04-30T21:30:27.960Z,53.10
2023-04-30T21:32:58.689Z,53.10
2023-04-30T21:35:33.545Z,53.30
2023-04-30T21:38:01.640Z,53.40
2023-04-30T21:40:33.566Z,53.40
2023-04-30T21:43:01.907Z,53.50
2023-04-30T21:45:30.789Z,53.50
2023-04-30T21:47:59.131Z,53.60
2023-04-30T21:50:29.111Z,53.70
2023-04-30T21:52:57.206Z,53.70
2023-04-30T21:55:26.698Z,53.70
2023-04-30T21:57:54.790Z,53.70
2023-04-30T22:00:22.933Z,53.70
2023-04-30T22:02:51.348Z,53.80
2023-04-30T22:05:21.067Z,53.70
2023-04-30T22:07:50.703Z,53.90
2023-04-30T22:10:18.803Z,54.00
2023-04-30T22:12:47.886Z,53.80
2023-04-30T22:15:16.490Z,53.90
2023-04-30T22:17:46.451Z,53.80
2023-04-30T22:20:14.825Z,53.90
2023-04-30T22:22:43.051Z,53.90
2023-04-30T22:25:12.656Z,53.90
2023-04-30T22:27:40.730Z,54.00
2023-04-30T22:30:09.557Z,54.00
2023-04-30T22:32:38.672Z,54.00
2023-04-30T22:35:08.128Z,54.00
2023-04-30T22:37:38.603Z,54.20
2023-04-30T22:40:08.239Z,54.30
2023-04-30T22:42:37.830Z,54.40
2023-04-30T22:45:06.959Z,54.60
2023-04-30T22:47:35.477Z,54.70
2023-04-30T22:50:04.836Z,55.00
2023-04-30T22:52:33.502Z,55.30
2023-04-30T22:55:02.108Z,55.40
2023-04-30T22:57:30.212Z,55.60
2023-04-30T22:59:59.699Z,55.60
2023-04-30T23:02:28.745Z,55.70
2023-04-30T23:04:56.993Z,55.70
2023-04-30T23:07:25.252Z,55.90
2023-04-30T23:09:53.473Z,56.00
2023-04-30T23:12:22.470Z,56.20
2023-04-30T23:14:50.927Z,56.30
2023-04-30T23:17:20.775Z,56.50
2023-04-30T23:19:49.038Z,56.80
2023-04-30T23:22:17.862Z,56.90
2023-04-30T23:24:45.956Z,57.10
2023-04-30T23:27:14.507Z,57.30
2023-04-30T23:29:42.985Z,57.30
2023-04-30T23:32:11.638Z,57.40
2023-04-30T23:34:41.180Z,57.50
2023-04-30T23:37:09.653Z,57.80
2023-04-30T23:39:37.738Z,57.80
2023-04-30T23:42:08.024Z,57.90
2023-04-30T23:44:36.170Z,58.00
2023-04-30T23:47:05.703Z,58.10
2023-04-30T23:49:33.827Z,58.20
2023-04-30T23:52:03.322Z,58.20
2023-04-30T23:54:31.432Z,58.50
2023-04-30T23:57:00.744Z,58.40
2023-04-30T23:59:28.862Z,58.50
